sensor_id;sensor_type;location;lat;lon;timestamp;pressure;altitude;pressure_sealevel;temperature;humidity
21706;BME280;11014;53.076;18.208;2022-11-09T00:01:04;101040.53;;;13.19;68.62
21706;BME280;11014;53.076;18.208;2022-11-09T00:03:32;101040.16;;;13.15;68.96
21706;BME280;11014;53.076;18.208;2022-11-09T00:06:01;101042.03;;;13.15;68.66
21706;BME280;11014;53.076;18.208;2022-11-09T00:08:29;101036.91;;;13.13;68.96
21706;BME280;11014;53.076;18.208;2022-11-09T00:11:02;101037.13;;;13.12;68.88
21706;BME280;11014;53.076;18.208;2022-11-09T00:13:56;101038.19;;;13.11;68.88
21706;BME280;11014;53.076;18.208;2022-11-09T00:16:24;101032.78;;;13.11;69.12
21706;BME280;11014;53.076;18.208;2022-11-09T00:18:53;101033.25;;;13.07;68.87
21706;BME280;11014;53.076;18.208;2022-11-09T00:21:24;101031.59;;;13.06;68.91
21706;BME280;11014;53.076;18.208;2022-11-09T00:23:52;101039.56;;;13.01;68.89
21706;BME280;11014;53.076;18.208;2022-11-09T00:26:21;101037.91;;;13.00;69.11
21706;BME280;11014;53.076;18.208;2022-11-09T00:28:49;101035.47;;;12.99;69.28
21706;BME280;11014;53.076;18.208;2022-11-09T00:31:20;101029.72;;;12.95;69.26
21706;BME280;11014;53.076;18.208;2022-11-09T00:33:50;101033.50;;;12.94;68.94
21706;BME280;11014;53.076;18.208;2022-11-09T00:36:23;101033.97;;;12.91;69.24
21706;BME280;11014;53.076;18.208;2022-11-09T00:38:53;101019.91;;;12.89;69.08
21706;BME280;11014;53.076;18.208;2022-11-09T00:41:23;101016.59;;;12.87;69.11
21706;BME280;11014;53.076;18.208;2022-11-09T00:43:52;101024.09;;;12.85;69.22
21706;BME280;11014;53.076;18.208;2022-11-09T00:46:20;101028.09;;;12.83;68.92
21706;BME280;11014;53.076;18.208;2022-11-09T00:48:53;101025.88;;;12.80;69.27
21706;BME280;11014;53.076;18.208;2022-11-09T00:51:23;101029.59;;;12.79;69.23
21706;BME280;11014;53.076;18.208;2022-11-09T00:53:52;101028.81;;;12.78;69.39
21706;BME280;11014;53.076;18.208;2022-11-09T00:56:22;101027.97;;;12.78;69.48
21706;BME280;11014;53.076;18.208;2022-11-09T00:58:53;101028.56;;;12.80;69.59
21706;BME280;11014;53.076;18.208;2022-11-09T01:01:23;101027.38;;;12.87;69.48
21706;BME280;11014;53.076;18.208;2022-11-09T01:03:51;101024.56;;;12.82;69.34
21706;BME280;11014;53.076;18.208;2022-11-09T01:06:38;101019.66;;;12.79;69.37
21706;BME280;11014;53.076;18.208;2022-11-09T01:09:09;101025.88;;;12.80;69.58
21706;BME280;11014;53.076;18.208;2022-11-09T01:11:38;101021.31;;;12.80;69.36
21706;BME280;11014;53.076;18.208;2022-11-09T01:14:08;101021.31;;;12.80;69.45
21706;BME280;11014;53.076;18.208;2022-11-09T01:16:37;101020.84;;;12.83;69.33
21706;BME280;11014;53.076;18.208;2022-11-09T01:19:06;101025.16;;;12.84;69.53
21706;BME280;11014;53.076;18.208;2022-11-09T01:21:34;101020.84;;;12.83;69.68
21706;BME280;11014;53.076;18.208;2022-11-09T01:24:03;101017.66;;;12.86;69.32
21706;BME280;11014;53.076;18.208;2022-11-09T01:26:32;101020.84;;;12.83;69.59
21706;BME280;11014;53.076;18.208;2022-11-09T01:29:00;101013.78;;;12.82;69.83
21706;BME280;11014;53.076;18.208;2022-11-09T01:31:29;101014.38;;;12.84;69.71
21706;BME280;11014;53.076;18.208;2022-11-09T01:33:57;101020.38;;;12.86;69.25
21706;BME280;11014;53.076;18.208;2022-11-09T01:36:26;101018.25;;;12.88;69.26
21706;BME280;11014;53.076;18.208;2022-11-09T01:38:54;101017.19;;;12.89;69.40
21706;BME280;11014;53.076;18.208;2022-11-09T01:41:26;101012.84;;;12.88;69.20
21706;BME280;11014;53.076;18.208;2022-11-09T01:44:08;101019.41;;;12.92;69.36
21706;BME280;11014;53.076;18.208;2022-11-09T01:46:56;101009.44;;;12.93;69.16
21706;BME280;11014;53.076;18.208;2022-11-09T01:49:51;101009.69;;;12.91;69.03
21706;BME280;11014;53.076;18.208;2022-11-09T01:52:35;101010.63;;;12.97;69.22
21706;BME280;11014;53.076;18.208;2022-11-09T01:55:12;101023.75;;;12.93;69.08
21706;BME280;11014;53.076;18.208;2022-11-09T01:57:53;101018.34;;;12.93;69.09
21706;BME280;11014;53.076;18.208;2022-11-09T02:00:23;101002.28;;;12.98;68.58
21706;BME280;11014;53.076;18.208;2022-11-09T02:02:55;101006.63;;;12.99;68.75
21706;BME280;11014;53.076;18.208;2022-11-09T02:05:30;100998.53;;;12.99;68.60
21706;BME280;11014;53.076;18.208;2022-11-09T02:08:02;101007.19;;;13.01;68.76
21706;BME280;11014;53.076;18.208;2022-11-09T02:10:44;100996.41;;;13.01;68.44
21706;BME280;11014;53.076;18.208;2022-11-09T02:13:15;100995.28;;;12.97;68.70
21706;BME280;11014;53.076;18.208;2022-11-09T02:15:47;100994.56;;;12.90;68.88
21706;BME280;11014;53.076;18.208;2022-11-09T02:18:17;100994.56;;;12.90;68.51
21706;BME280;11014;53.076;18.208;2022-11-09T02:20:51;100986.09;;;12.87;68.76
21706;BME280;11014;53.076;18.208;2022-11-09T02:23:24;100982.38;;;12.99;68.38
21706;BME280;11014;53.076;18.208;2022-11-09T02:25:57;100982.22;;;13.06;68.07
21706;BME280;11014;53.076;18.208;2022-11-09T02:28:29;100971.22;;;13.07;68.00
21706;BME280;11014;53.076;18.208;2022-11-09T02:30:59;100962.31;;;13.07;67.84
21706;BME280;11014;53.076;18.208;2022-11-09T02:33:29;100952.34;;;13.07;67.60
21706;BME280;11014;53.076;18.208;2022-11-09T02:36:07;100961.84;;;13.10;67.48
21706;BME280;11014;53.076;18.208;2022-11-09T02:38:36;100966.41;;;13.10;67.78
21706;BME280;11014;53.076;18.208;2022-11-09T02:41:05;100965.59;;;13.09;67.72
21706;BME280;11014;53.076;18.208;2022-11-09T02:43:34;100970.75;;;13.11;67.35
21706;BME280;11014;53.076;18.208;2022-11-09T02:46:04;100957.50;;;13.09;67.44
21706;BME280;11014;53.076;18.208;2022-11-09T02:48:33;100943.22;;;13.09;67.55
21706;BME280;11014;53.076;18.208;2022-11-09T02:51:02;100925.97;;;13.10;67.37
21706;BME280;11014;53.076;18.208;2022-11-09T02:53:30;100930.31;;;13.11;66.99
21706;BME280;11014;53.076;18.208;2022-11-09T02:56:04;100959.41;;;13.09;67.38
21706;BME280;11014;53.076;18.208;2022-11-09T02:58:32;100961.13;;;13.03;67.17
21706;BME280;11014;53.076;18.208;2022-11-09T03:01:01;100952.09;;;13.09;67.12
21706;BME280;11014;53.076;18.208;2022-11-09T03:03:30;100964.28;;;13.12;67.31
21706;BME280;11014;53.076;18.208;2022-11-09T03:05:58;100971.34;;;13.13;67.19
21706;BME280;11014;53.076;18.208;2022-11-09T03:08:27;100974.59;;;13.15;67.01
21706;BME280;11014;53.076;18.208;2022-11-09T03:10:58;100968.06;;;13.11;66.70
21706;BME280;11014;53.076;18.208;2022-11-09T03:13:27;100976.72;;;13.13;66.65
21706;BME280;11014;53.076;18.208;2022-11-09T03:15:55;100972.97;;;13.14;66.93
21706;BME280;11014;53.076;18.208;2022-11-09T03:18:24;100999.97;;;13.14;66.83
21706;BME280;11014;53.076;18.208;2022-11-09T03:20:52;101006.66;;;13.11;66.68
21706;BME280;11014;53.076;18.208;2022-11-09T03:23:21;100998.78;;;13.10;66.50
21706;BME280;11014;53.076;18.208;2022-11-09T03:25:49;100983.41;;;13.10;66.65
21706;BME280;11014;53.076;18.208;2022-11-09T03:28:18;100993.38;;;13.10;66.54
21706;BME280;11014;53.076;18.208;2022-11-09T03:30:46;100993.38;;;13.10;66.69
21706;BME280;11014;53.076;18.208;2022-11-09T03:33:15;101002.31;;;13.10;66.37
21706;BME280;11014;53.076;18.208;2022-11-09T03:35:44;101000.91;;;13.07;66.21
21706;BME280;11014;53.076;18.208;2022-11-09T03:38:17;100998.38;;;13.06;66.21
21706;BME280;11014;53.076;18.208;2022-11-09T03:40:47;100994.28;;;13.03;66.53
21706;BME280;11014;53.076;18.208;2022-11-09T03:43:17;100993.25;;;13.04;66.34
21706;BME280;11014;53.076;18.208;2022-11-09T03:45:46;100977.66;;;13.06;66.45
21706;BME280;11014;53.076;18.208;2022-11-09T03:48:15;100978.84;;;13.11;66.26
21706;BME280;11014;53.076;18.208;2022-11-09T03:50:43;100974.28;;;13.11;66.22
21706;BME280;11014;53.076;18.208;2022-11-09T03:53:12;100967.81;;;13.12;66.13
21706;BME280;11014;53.076;18.208;2022-11-09T03:55:40;100962.66;;;13.11;66.36
21706;BME280;11014;53.076;18.208;2022-11-09T03:58:10;100964.28;;;13.12;66.52
21706;BME280;11014;53.076;18.208;2022-11-09T04:00:40;100968.06;;;13.11;66.33
21706;BME280;11014;53.076;18.208;2022-11-09T04:03:08;100973.47;;;13.11;66.39
21706;BME280;11014;53.076;18.208;2022-11-09T04:05:36;100976.16;;;13.11;66.29
21706;BME280;11014;53.076;18.208;2022-11-09T04:08:05;100990.31;;;13.06;66.29
21706;BME280;11014;53.076;18.208;2022-11-09T04:10:33;100997.47;;;13.00;66.29
21706;BME280;11014;53.076;18.208;2022-11-09T04:13:02;100991.28;;;13.00;66.69
21706;BME280;11014;53.076;18.208;2022-11-09T04:15:30;100990.81;;;13.03;66.45
21706;BME280;11014;53.076;18.208;2022-11-09T04:18:00;100981.88;;;13.02;66.63
21706;BME280;11014;53.076;18.208;2022-11-09T04:20:30;100979.75;;;13.04;66.20
21706;BME280;11014;53.076;18.208;2022-11-09T04:23:01;100981.41;;;13.05;66.33
21706;BME280;11014;53.076;18.208;2022-11-09T04:25:37;100983.69;;;13.09;66.14
21706;BME280;11014;53.076;18.208;2022-11-09T04:28:10;100977.19;;;13.10;66.19
21706;BME280;11014;53.076;18.208;2022-11-09T04:30:38;100975.78;;;13.19;66.02
21706;BME280;11014;53.076;18.208;2022-11-09T04:33:08;100969.22;;;13.15;65.95
21706;BME280;11014;53.076;18.208;2022-11-09T04:35:36;100974.28;;;13.11;66.03
21706;BME280;11014;53.076;18.208;2022-11-09T04:38:07;100961.03;;;13.10;66.25
21706;BME280;11014;53.076;18.208;2022-11-09T04:40:37;100972.00;;;13.20;66.22
21706;BME280;11014;53.076;18.208;2022-11-09T04:43:11;100964.28;;;13.12;66.08
21706;BME280;11014;53.076;18.208;2022-11-09T04:45:40;100954.00;;;13.09;66.21
21706;BME280;11014;53.076;18.208;2022-11-09T04:48:09;100960.81;;;13.11;65.95
21706;BME280;11014;53.076;18.208;2022-11-09T04:50:38;100964.28;;;13.12;66.24
21706;BME280;11014;53.076;18.208;2022-11-09T04:53:12;100960.53;;;13.13;66.06
21706;BME280;11014;53.076;18.208;2022-11-09T04:55:41;100958.91;;;13.12;65.97
21706;BME280;11014;53.076;18.208;2022-11-09T04:58:10;100958.91;;;13.12;66.19
21706;BME280;11014;53.076;18.208;2022-11-09T05:00:39;100960.53;;;13.13;65.88
21706;BME280;11014;53.076;18.208;2022-11-09T05:03:08;100964.28;;;13.12;65.98
21706;BME280;11014;53.076;18.208;2022-11-09T05:05:37;100958.09;;;13.11;66.22
21706;BME280;11014;53.076;18.208;2022-11-09T05:08:11;100957.28;;;13.11;65.85
21706;BME280;11014;53.076;18.208;2022-11-09T05:10:39;100956.44;;;13.10;65.92
21706;BME280;11014;53.076;18.208;2022-11-09T05:13:10;100947.78;;;13.08;65.84
21706;BME280;11014;53.076;18.208;2022-11-09T05:15:39;100942.00;;;13.04;66.25
21706;BME280;11014;53.076;18.208;2022-11-09T05:18:09;100926.66;;;13.05;66.25
21706;BME280;11014;53.076;18.208;2022-11-09T05:20:37;100947.41;;;13.04;65.86
21706;BME280;11014;53.076;18.208;2022-11-09T05:23:05;100958.19;;;13.04;65.93
21706;BME280;11014;53.076;18.208;2022-11-09T05:25:52;100958.44;;;13.03;65.76
21706;BME280;11014;53.076;18.208;2022-11-09T05:28:24;100957.25;;;12.99;65.79
21706;BME280;11014;53.076;18.208;2022-11-09T05:30:52;100955.88;;;12.96;66.15
21706;BME280;11014;53.076;18.208;2022-11-09T05:33:21;100961.84;;;12.98;65.83
21706;BME280;11014;53.076;18.208;2022-11-09T05:35:50;100959.59;;;12.95;65.72
21706;BME280;11014;53.076;18.208;2022-11-09T05:38:22;100965.00;;;12.95;65.70
21706;BME280;11014;53.076;18.208;2022-11-09T05:40:51;100976.75;;;12.89;65.80
21706;BME280;11014;53.076;18.208;2022-11-09T05:43:20;100971.47;;;12.83;66.18
21706;BME280;11014;53.076;18.208;2022-11-09T05:45:49;100965.88;;;12.73;66.18
21706;BME280;11014;53.076;18.208;2022-11-09T05:48:17;100956.84;;;12.67;66.73
21706;BME280;11014;53.076;18.208;2022-11-09T05:50:45;100961.28;;;12.73;66.44
21706;BME280;11014;53.076;18.208;2022-11-09T05:53:23;100955.88;;;12.73;66.39
21706;BME280;11014;53.076;18.208;2022-11-09T05:55:51;100956.38;;;12.70;66.14
21706;BME280;11014;53.076;18.208;2022-11-09T05:58:20;100956.84;;;12.67;66.13
21706;BME280;11014;53.076;18.208;2022-11-09T06:00:49;100961.06;;;12.63;66.36
21706;BME280;11014;53.076;18.208;2022-11-09T06:03:18;100969.03;;;12.58;66.68
21706;BME280;11014;53.076;18.208;2022-11-09T06:05:47;100974.31;;;12.53;66.70
21706;BME280;11014;53.076;18.208;2022-11-09T06:08:16;100969.41;;;12.50;67.00
21706;BME280;11014;53.076;18.208;2022-11-09T06:10:44;100967.16;;;12.47;66.78
21706;BME280;11014;53.076;18.208;2022-11-09T06:13:13;100976.28;;;12.46;66.77
21706;BME280;11014;53.076;18.208;2022-11-09T06:15:41;100973.84;;;12.44;66.94
21706;BME280;11014;53.076;18.208;2022-11-09T06:18:10;100976.78;;;12.43;67.10
21706;BME280;11014;53.076;18.208;2022-11-09T06:20:38;100968.91;;;12.41;67.13
21706;BME280;11014;53.076;18.208;2022-11-09T06:23:07;100976.44;;;12.39;67.28
21706;BME280;11014;53.076;18.208;2022-11-09T06:25:35;100968.81;;;12.36;67.29
21706;BME280;11014;53.076;18.208;2022-11-09T06:28:04;100967.97;;;12.36;67.29
21706;BME280;11014;53.076;18.208;2022-11-09T06:30:32;100952.84;;;12.35;67.43
21706;BME280;11014;53.076;18.208;2022-11-09T06:33:01;100959.91;;;12.36;67.50
21706;BME280;11014;53.076;18.208;2022-11-09T06:35:30;100962.59;;;12.36;67.52
21706;BME280;11014;53.076;18.208;2022-11-09T06:37:59;100963.16;;;12.38;67.50
21706;BME280;11014;53.076;18.208;2022-11-09T06:40:53;100957.31;;;12.41;67.71
21706;BME280;11014;53.076;18.208;2022-11-09T06:43:23;100961.66;;;12.42;67.51
21706;BME280;11014;53.076;18.208;2022-11-09T06:45:51;100964.34;;;12.42;67.91
21706;BME280;11014;53.076;18.208;2022-11-09T06:48:20;100963.53;;;12.41;67.71
21706;BME280;11014;53.076;18.208;2022-11-09T06:50:49;100967.06;;;12.42;67.79
21706;BME280;11014;53.076;18.208;2022-11-09T06:53:18;100964.94;;;12.44;67.85
21706;BME280;11014;53.076;18.208;2022-11-09T06:55:46;100971.97;;;12.45;67.91
21706;BME280;11014;53.076;18.208;2022-11-09T06:58:18;100965.06;;;12.49;67.94
21706;BME280;11014;53.076;18.208;2022-11-09T07:00:46;100970.44;;;12.49;68.21
21706;BME280;11014;53.076;18.208;2022-11-09T07:03:16;100960.84;;;12.53;68.10
21706;BME280;11014;53.076;18.208;2022-11-09T07:05:47;100977.13;;;12.58;68.07
21706;BME280;11014;53.076;18.208;2022-11-09T07:08:16;100971.28;;;12.61;68.05
21706;BME280;11014;53.076;18.208;2022-11-09T07:10:44;100970.22;;;12.62;68.10
21706;BME280;11014;53.076;18.208;2022-11-09T07:13:13;100980.50;;;12.65;67.95
21706;BME280;11014;53.076;18.208;2022-11-09T07:15:42;100969.25;;;12.68;67.96
21706;BME280;11014;53.076;18.208;2022-11-09T07:18:11;100964.47;;;12.70;68.10
21706;BME280;11014;53.076;18.208;2022-11-09T07:20:40;100968.31;;;12.74;67.98
21706;BME280;11014;53.076;18.208;2022-11-09T07:23:09;100977.81;;;12.77;68.35
21706;BME280;11014;53.076;18.208;2022-11-09T07:25:37;100973.59;;;12.81;68.15
21706;BME280;11014;53.076;18.208;2022-11-09T07:28:06;100979.31;;;12.84;68.02
21706;BME280;11014;53.076;18.208;2022-11-09T07:30:36;100978.84;;;12.87;68.00
21706;BME280;11014;53.076;18.208;2022-11-09T07:33:16;100983.78;;;12.90;68.13
21706;BME280;11014;53.076;18.208;2022-11-09T07:35:49;100979.78;;;12.93;68.09
21706;BME280;11014;53.076;18.208;2022-11-09T07:38:18;100985.06;;;12.99;68.04
21706;BME280;11014;53.076;18.208;2022-11-09T07:40:46;100988.91;;;13.03;68.23
21706;BME280;11014;53.076;18.208;2022-11-09T07:43:15;100980.47;;;13.12;67.83
21706;BME280;11014;53.076;18.208;2022-11-09T07:45:49;100984.44;;;13.21;67.80
21706;BME280;11014;53.076;18.208;2022-11-09T07:48:18;100987.59;;;13.29;67.96
21706;BME280;11014;53.076;18.208;2022-11-09T07:50:46;101003.66;;;13.36;67.90
21706;BME280;11014;53.076;18.208;2022-11-09T07:53:15;101001.16;;;13.46;67.74
21706;BME280;11014;53.076;18.208;2022-11-09T07:55:44;101011.56;;;13.54;67.65
21706;BME280;11014;53.076;18.208;2022-11-09T07:58:14;100999.81;;;13.60;67.10
21706;BME280;11014;53.076;18.208;2022-11-09T08:00:42;100992.94;;;13.69;67.24
21706;BME280;11014;53.076;18.208;2022-11-09T08:03:11;100997.38;;;13.75;66.81
21706;BME280;11014;53.076;18.208;2022-11-09T08:05:40;100997.94;;;13.77;66.62
21706;BME280;11014;53.076;18.208;2022-11-09T08:08:10;100989.97;;;13.82;66.60
21706;BME280;11014;53.076;18.208;2022-11-09T08:10:39;100979.00;;;13.89;66.45
21706;BME280;11014;53.076;18.208;2022-11-09T08:13:13;100976.16;;;13.95;66.18
21706;BME280;11014;53.076;18.208;2022-11-09T08:15:41;100973.53;;;14.00;66.25
21706;BME280;11014;53.076;18.208;2022-11-09T08:18:18;100972.22;;;14.03;65.80
21706;BME280;11014;53.076;18.208;2022-11-09T08:20:48;100980.19;;;14.09;66.13
21706;BME280;11014;53.076;18.208;2022-11-09T08:23:18;100979.44;;;14.14;65.98
21706;BME280;11014;53.076;18.208;2022-11-09T08:25:49;100990.75;;;14.27;65.63
21706;BME280;11014;53.076;18.208;2022-11-09T08:28:17;100996.03;;;14.34;65.54
21706;BME280;11014;53.076;18.208;2022-11-09T08:30:55;100988.81;;;14.40;65.55
21706;BME280;11014;53.076;18.208;2022-11-09T08:33:25;100986.75;;;14.47;65.45
21706;BME280;11014;53.076;18.208;2022-11-09T08:35:54;100987.66;;;14.52;65.23
21706;BME280;11014;53.076;18.208;2022-11-09T08:38:23;100975.03;;;14.58;65.00
21706;BME280;11014;53.076;18.208;2022-11-09T08:40:56;100969.19;;;14.66;64.64
21706;BME280;11014;53.076;18.208;2022-11-09T08:43:25;100962.53;;;14.73;64.65
21706;BME280;11014;53.076;18.208;2022-11-09T08:45:53;100963.44;;;14.79;64.58
21706;BME280;11014;53.076;18.208;2022-11-09T08:48:22;100965.13;;;14.85;64.27
21706;BME280;11014;53.076;18.208;2022-11-09T08:50:56;100974.97;;;14.91;64.50
21706;BME280;11014;53.076;18.208;2022-11-09T08:53:26;100969.34;;;14.98;64.31
21706;BME280;11014;53.076;18.208;2022-11-09T08:55:55;100971.31;;;15.02;64.07
21706;BME280;11014;53.076;18.208;2022-11-09T08:58:24;100980.88;;;15.10;64.27
21706;BME280;11014;53.076;18.208;2022-11-09T09:00:52;100980.13;;;15.14;63.84
21706;BME280;11014;53.076;18.208;2022-11-09T09:03:21;100987.78;;;15.22;63.64
21706;BME280;11014;53.076;18.208;2022-11-09T09:05:50;100982.53;;;15.32;63.75
21706;BME280;11014;53.076;18.208;2022-11-09T09:08:18;100979.38;;;15.40;63.54
21706;BME280;11014;53.076;18.208;2022-11-09T09:10:50;100989.78;;;15.49;63.06
21706;BME280;11014;53.076;18.208;2022-11-09T09:13:19;100992.03;;;15.57;62.95
21706;BME280;11014;53.076;18.208;2022-11-09T09:15:49;100989.94;;;15.64;62.79
21706;BME280;11014;53.076;18.208;2022-11-09T09:18:18;101002.69;;;15.68;62.29
21706;BME280;11014;53.076;18.208;2022-11-09T09:20:47;101001.41;;;15.71;62.37
21706;BME280;11014;53.076;18.208;2022-11-09T09:23:16;101003.66;;;15.79;62.36
21706;BME280;11014;53.076;18.208;2022-11-09T09:25:44;101000.75;;;15.90;62.04
21706;BME280;11014;53.076;18.208;2022-11-09T09:28:14;101002.22;;;15.98;61.72
21706;BME280;11014;53.076;18.208;2022-11-09T09:30:42;101004.47;;;16.06;61.82
21706;BME280;11014;53.076;18.208;2022-11-09T09:33:11;101005.06;;;16.13;61.76
21706;BME280;11014;53.076;18.208;2022-11-09T09:35:39;101002.38;;;16.18;61.38
21706;BME280;11014;53.076;18.208;2022-11-09T09:38:08;100999.72;;;16.23;61.08
21706;BME280;11014;53.076;18.208;2022-11-09T09:40:45;100994.34;;;16.28;60.94
21706;BME280;11014;53.076;18.208;2022-11-09T09:43:26;100988.97;;;16.33;61.00
21706;BME280;11014;53.076;18.208;2022-11-09T09:45:55;101006.34;;;16.37;61.06
21706;BME280;11014;53.076;18.208;2022-11-09T09:48:34;100996.03;;;16.39;60.83
21706;BME280;11014;53.076;18.208;2022-11-09T09:51:41;101002.06;;;16.46;60.84
21706;BME280;11014;53.076;18.208;2022-11-09T09:54:18;101005.88;;;16.50;60.49
21706;BME280;11014;53.076;18.208;2022-11-09T09:56:49;101000.28;;;16.57;60.64
21706;BME280;11014;53.076;18.208;2022-11-09T10:01:47;100998.50;;;16.78;60.15
21706;BME280;11014;53.076;18.208;2022-11-09T10:04:17;100996.41;;;16.90;60.06
21706;BME280;11014;53.076;18.208;2022-11-09T10:16:08;100977.91;;;17.34;58.61
21706;BME280;11014;53.076;18.208;2022-11-09T10:21:52;100968.44;;;17.51;58.01
21706;BME280;11014;53.076;18.208;2022-11-09T10:27:38;100975.56;;;17.62;57.47
21706;BME280;11014;53.076;18.208;2022-11-09T10:30:12;100983.19;;;17.70;57.11
21706;BME280;11014;53.076;18.208;2022-11-09T10:32:45;100987.00;;;17.69;57.24
21706;BME280;11014;53.076;18.208;2022-11-09T10:35:36;100990.78;;;17.73;56.84
21706;BME280;11014;53.076;18.208;2022-11-09T10:38:13;100992.97;;;17.76;56.61
21706;BME280;11014;53.076;18.208;2022-11-09T10:41:02;100986.47;;;17.77;56.41
21706;BME280;11014;53.076;18.208;2022-11-09T10:43:52;100977.78;;;17.81;56.76
21706;BME280;11014;53.076;18.208;2022-11-09T10:47:05;100980.50;;;17.86;56.44
21706;BME280;11014;53.076;18.208;2022-11-09T10:50:20;100985.94;;;17.86;56.17
21706;BME280;11014;53.076;18.208;2022-11-09T10:56:16;100980.25;;;17.92;56.81
21706;BME280;11014;53.076;18.208;2022-11-09T11:02:44;100978.91;;;17.95;56.46
21706;BME280;11014;53.076;18.208;2022-11-09T11:05:32;100975.06;;;17.96;56.43
21706;BME280;11014;53.076;18.208;2022-11-09T11:08:31;100982.97;;;17.97;56.41
21706;BME280;11014;53.076;18.208;2022-11-09T11:11:27;100983.78;;;17.98;56.40
21706;BME280;11014;53.076;18.208;2022-11-09T11:14:33;100992.19;;;18.01;56.43
21706;BME280;11014;53.076;18.208;2022-11-09T11:17:23;100981.06;;;18.03;56.11
21706;BME280;11014;53.076;18.208;2022-11-09T11:20:37;100979.44;;;18.07;56.30
21706;BME280;11014;53.076;18.208;2022-11-09T11:23:25;100992.78;;;18.08;56.51
21706;BME280;11014;53.076;18.208;2022-11-09T11:32:10;101000.09;;;18.08;56.33
21706;BME280;11014;53.076;18.208;2022-11-09T11:34:57;101003.59;;;18.03;56.42
21706;BME280;11014;53.076;18.208;2022-11-09T11:38:09;101004.97;;;18.01;56.37
21706;BME280;11014;53.076;18.208;2022-11-09T11:47:03;101000.06;;;17.88;56.63
21706;BME280;11014;53.076;18.208;2022-11-09T11:56:39;101007.13;;;17.79;56.82
21706;BME280;11014;53.076;18.208;2022-11-09T12:03:14;101018.53;;;17.75;57.10
21706;BME280;11014;53.076;18.208;2022-11-09T12:09:26;101014.47;;;17.73;57.23
21706;BME280;11014;53.076;18.208;2022-11-09T12:15:27;101011.44;;;17.69;57.31
21706;BME280;11014;53.076;18.208;2022-11-09T12:24:18;100997.34;;;17.72;57.67
21706;BME280;11014;53.076;18.208;2022-11-09T12:30:20;100995.16;;;17.74;57.44
21706;BME280;11014;53.076;18.208;2022-11-09T12:33:16;101003.84;;;17.76;57.29
21706;BME280;11014;53.076;18.208;2022-11-09T12:36:15;100982.94;;;17.77;57.10
21706;BME280;11014;53.076;18.208;2022-11-09T12:39:35;100985.41;;;17.79;57.14
21706;BME280;11014;53.076;18.208;2022-11-09T12:42:35;100987.28;;;17.78;57.01
21706;BME280;11014;53.076;18.208;2022-11-09T12:45:36;100989.72;;;17.74;57.30
21706;BME280;11014;53.076;18.208;2022-11-09T12:48:32;100982.38;;;17.70;57.16
21706;BME280;11014;53.076;18.208;2022-11-09T12:51:20;100982.66;;;17.73;57.36
21706;BME280;11014;53.076;18.208;2022-11-09T12:54:08;100999.78;;;17.74;57.06
21706;BME280;11014;53.076;18.208;2022-11-09T12:57:01;100986.47;;;17.72;57.09
21706;BME280;11014;53.076;18.208;2022-11-09T12:59:57;100989.44;;;17.71;57.19
21706;BME280;11014;53.076;18.208;2022-11-09T13:02:57;100994.03;;;17.70;57.13
21706;BME280;11014;53.076;18.208;2022-11-09T13:05:44;100996.22;;;17.68;57.30
21706;BME280;11014;53.076;18.208;2022-11-09T13:08:33;101002.47;;;17.69;57.34
21706;BME280;11014;53.076;18.208;2022-11-09T13:11:40;101003.84;;;17.66;57.52
21706;BME280;11014;53.076;18.208;2022-11-09T13:14:36;100994.84;;;17.66;57.79
21706;BME280;11014;53.076;18.208;2022-11-09T13:20:39;100990.53;;;17.65;57.74
21706;BME280;11014;53.076;18.208;2022-11-09T13:23:42;100994.31;;;17.64;57.64
21706;BME280;11014;53.076;18.208;2022-11-09T13:26:54;100991.31;;;17.65;57.53
21706;BME280;11014;53.076;18.208;2022-11-09T13:32:30;100996.22;;;17.68;57.84
21706;BME280;11014;53.076;18.208;2022-11-09T13:38:29;100983.47;;;17.74;57.43
21706;BME280;11014;53.076;18.208;2022-11-09T13:44:23;100982.66;;;17.73;57.61
21706;BME280;11014;53.076;18.208;2022-11-09T13:47:33;100987.00;;;17.69;57.56
21706;BME280;11014;53.076;18.208;2022-11-09T13:50:25;100984.81;;;17.66;57.93
21706;BME280;11014;53.076;18.208;2022-11-09T13:56:34;100992.69;;;17.63;58.01
21706;BME280;11014;53.076;18.208;2022-11-09T13:59:27;101003.00;;;17.61;57.72
21706;BME280;11014;53.076;18.208;2022-11-09T14:02:18;101005.44;;;17.57;58.27
21706;BME280;11014;53.076;18.208;2022-11-09T14:05:30;101005.19;;;17.59;58.46
21706;BME280;11014;53.076;18.208;2022-11-09T14:08:47;101000.81;;;17.58;58.18
21706;BME280;11014;53.076;18.208;2022-11-09T14:11:44;100997.28;;;17.57;58.40
21706;BME280;11014;53.076;18.208;2022-11-09T14:24:17;101034.13;;;17.38;59.09
21706;BME280;11014;53.076;18.208;2022-11-09T14:29:58;101018.94;;;17.42;59.44
21706;BME280;11014;53.076;18.208;2022-11-09T14:32:49;101024.09;;;17.44;59.74
21706;BME280;11014;53.076;18.208;2022-11-09T14:35:37;101023.28;;;17.43;59.78
21706;BME280;11014;53.076;18.208;2022-11-09T14:38:34;101018.94;;;17.42;59.90
21706;BME280;11014;53.076;18.208;2022-11-09T14:41:24;101021.13;;;17.40;59.74
21706;BME280;11014;53.076;18.208;2022-11-09T14:44:22;101018.91;;;17.37;60.04
21706;BME280;11014;53.076;18.208;2022-11-09T14:47:16;101016.97;;;17.33;60.07
21706;BME280;11014;53.076;18.208;2022-11-09T14:50:03;101012.66;;;17.32;60.39
21706;BME280;11014;53.076;18.208;2022-11-09T14:52:56;101005.88;;;17.34;60.21
21706;BME280;11014;53.076;18.208;2022-11-09T15:15:19;101026.94;;;17.12;60.72